Vliegveldwaarnemingen Nederland - (AUTO) METAR

Luchtvaartmeteorologische informatie voor operationeel gebruik en vluchtvoorbereiding is beschikbaar op www.luchtvaartmeteo.nl.

ZCZC
SA231155 EHKD CCA DE KOOY/DE KOOY   NLD   1 m.
METAR COR EHKD 231155Z AUTO 30007KT 250V340 9999 FEW022 BKN054 OVC130
17/10 Q1027
BLU 30012KT 9999 FEW023 BKN040=

ZCZC
SA231155 EHFD     F3-FB-1   NLD   50 m.
METAR EHFD 231155Z AUTO 30023KT 9999 SCT016/// BKN020/// 13/09 Q1024
W///H///=

ZCZC
SA231155 EHAM     AMSTERDAM/SCHIPHOL   NLD   -3 m.
METAR EHAM 231155Z 29008KT 250V330 9999 FEW035 17/10 Q1027 NOSIG=

ZCZC
SA231155 EHVL     VLIELAND   NLD   10 m.
METAR EHVL 231155Z AUTO 30009KT 260V320 9999 OVC110 16/09 Q1027 BLU=

ZCZC
SA231155 EHJR     K13-A   NLD   37 m.
METAR EHJR 231155Z AUTO 23009KT //// // ///////// 14/10 Q1027 RE//
W14/H14=

ZCZC
SA231155 EHLW     LEEUWARDEN/LEEUWARDEN   NLD   1 m.
METAR EHLW 231155Z AUTO 31014KT 250V350 9999 SCT023 BKN027 BKN035
16/09 Q1026 WHT=

ZCZC
SA231155 EHDL     ARNHEM/DEELEN   NLD   48 m.
METAR EHDL 231155Z AUTO 30010KT 240V360 9999 SCT027 SCT034 BKN040
16/09 Q1027 BLU=

ZCZC
SA231155 EHGG     GRONINGEN/EELDE   NLD   5 m.
METAR EHGG 231155Z AUTO 31015KT 270V360 9999 SCT029 BKN033 OVC038
16/09 Q1025 TEMPO 31015G25KT=

ZCZC
SA231155 EHSC     LICHTEILAND GOEREE   NLD   22 m.
METAR EHSC 231155Z AUTO 24013KT 9999 ///////// 15/08 Q1027 W16/H13=

ZCZC
SA231155 EHSA     EURO PLATFORM   NLD   19 m.
METAR EHSA 231155Z AUTO 22016KT //// // ///////// 15/10 Q1028 RE//
W14/H12=

ZCZC
SA231155 EHWO     WOENSDRECHT/WOENSDRECHT   NLD   19 m.
METAR EHWO 231155Z AUTO VRB07KT 9999 OVC330 19/08 Q1027 BLU=

ZCZC
SA231155 EHRD     ROTTERDAM/THE HAGUE AIRPORT   NLD   -5 m.
METAR EHRD 231155Z AUTO 29007KT 250V340 9999 NSC 19/07 Q1027 NOSIG=

ZCZC
SA231155 EHGR     GILZE-RIJEN/GILZE-RIJEN   NLD   14 m.
METAR EHGR 231155Z AUTO 32006KT 250V340 9999 OVC034 19/08 Q1027 BLU=

ZCZC
SA231155 EHEH     EINDHOVEN/EINDHOVEN   NLD   22 m.
METAR EHEH 231155Z AUTO 26003KT 200V340 9999 BKN027 OVC037 17/10
Q1027
BLU 31007KT 9999 SCT025 BKN027=

ZCZC
SA231155 EHVK     VOLKEL/VOLKEL   NLD   21 m.
METAR EHVK 231155Z AUTO 27005KT 240V330 9999 SCT035 BKN039 OVC043
16/10 Q1027 BLU=

ZCZC
SA231155 EHBK     MAASTRICHT/MAASTRICHT-AACHEN   NLD   114 m.
METAR EHBK 231155Z AUTO 34006KT 290V020 9999 OVC029 16/09 Q1028
NOSIG=

ZCZC
SA231155 EHFZ     F16-A   NLD   43 m.
METAR EHFZ 231155Z AUTO 28009KT 9999 NSC 14/10 Q1026 W///H///=

ZCZC
SA231155 EHKV     K14-FA-1C   NLD   41 m.
METAR EHKV 231155Z AUTO 23010KT 9999 FEW048 14/08 Q1027 W///H///=

ZCZC
SA231155 EHMG     L9-FF-1   NLD   44 m.
METAR EHMG 231155Z AUTO 30013KT 9999 FEW022 13/09 Q1027 W///H///=

ZCZC
SA231155 EHMA     AWG-1   NLD   40 m.
METAR EHMA 231155Z AUTO 30021KT 9999 FEW017 SCT021 BKN024 14/08 Q1025
REDZ W///H///=

ZCZC
SA231155 EHDV     D15-FA-1   NLD   42 m.
METAR EHDV 231155Z AUTO 28006KT 9999 OVC046/// 13/10 Q1026 W///H///=

ZCZC
SA231155 EHAK     A12-CPP   NLD   48 m.
METAR EHAK 231155Z AUTO 32018KT 9999 FEW012/// 12/09 Q1025 W///H///=

ZCZC
SA231155 EHQE     HOORN-A   NLD   50 m.
METAR EHQE 231155Z AUTO 20006KT 9999 NSC 14/09 Q1027 W///H///=

ZCZC
SA231155 EHJA     J6-A   NLD   45 m.
METAR EHJA 231155Z AUTO 24010KT 9999 FEW040/// SCT045/// 13/11 Q1026
W///H///=

ZCZC
SA231155 EHPG     P11-B   NLD   41 m.
METAR EHPG 231155Z AUTO 22014KT 9999 NSC 14/10 Q1027 W///H///=

ZCZC
SA231155 EHHW     BUITENGAATS/BG-OHVS2      42 m.
METAR EHHW 231155Z AUTO 33021KT //// // SCT016/// SCT022/// 13/09
Q1024 RE// W///H///=

ZCZC
SA231155 EHFS     VLISSINGEN AWS   NLD   8 m.
METAR EHFS 231155Z AUTO 26011KT 230V300 9999 NSC 18/05 Q1028
W///H///=

23/06/2018 14.15 uur LT